Time;durP1;ratioP1;P1;durP2;ratioP2;P2;SDS_P1;SDS_P2;PMS_P1;PMS_P2;Temp;Humidity;BMP_temperature;BMP_pressure;BME280_temperature;BME280_humidity;BME280_pressure;Samples;Min_cycle;Max_cycle;Signal;HPM_P1;HPM_P2
2023/08/23 00:00:05;;;;;;;7.90;3.25;;;;;;;;;;5042706;28;20116;-81
2023/08/23 00:02:31;;;;;;;8.27;3.00;;;;;;;;;;5048073;28;20032;-84
2023/08/23 00:04:57;;;;;;;6.20;2.60;;;;;;;;;;5042354;28;20108;-84
2023/08/23 00:07:23;;;;;;;5.60;2.80;;;;;;;;;;5057431;28;20112;-83
2023/08/23 00:09:49;;;;;;;4.55;2.85;;;;;;;;;;5040578;28;20480;-85
2023/08/23 00:12:17;;;;;;;8.45;2.60;;;;;;;;;;5046958;28;20052;-82
2023/08/23 00:14:43;;;;;;;5.10;3.10;;;;;;;;;;5038254;28;20036;-86
2023/08/23 00:17:09;;;;;;;10.02;3.35;;;;;;;;;;5036960;28;20037;-84
2023/08/23 00:19:35;;;;;;;5.95;3.35;;;;;;;;;;5040522;28;20126;-81
2023/08/23 00:22:04;;;;;;;5.18;2.53;;;;;;;;;;5038793;28;20036;-84
2023/08/23 00:24:29;;;;;;;6.10;2.50;;;;;;;;;;5057308;28;20029;-80
2023/08/23 00:26:56;;;;;;;5.22;2.65;;;;;;;;;;5042710;28;20029;-85
2023/08/23 00:29:22;;;;;;;8.60;2.78;;;;;;;;;;5040635;28;20071;-84
2023/08/23 00:31:48;;;;;;;6.53;3.10;;;;;;;;;;5056270;28;20033;-81
2023/08/23 00:34:14;;;;;;;9.63;3.03;;;;;;;;;;5042522;28;20033;-84
2023/08/23 00:36:40;;;;;;;4.63;2.35;;;;;;;;;;5048575;28;20388;-84
2023/08/23 00:39:08;;;;;;;8.35;2.65;;;;;;;;;;5040474;28;20049;-81
2023/08/23 00:41:35;;;;;;;7.25;2.97;;;;;;;;;;5040388;28;20028;-84
2023/08/23 00:44:01;;;;;;;8.40;2.63;;;;;;;;;;5056538;28;20048;-83
2023/08/23 00:46:27;;;;;;;9.32;3.17;;;;;;;;;;5040406;28;20037;-79
2023/08/23 00:48:54;;;;;;;5.78;3.10;;;;;;;;;;5041028;28;20029;-81
2023/08/23 00:51:20;;;;;;;7.70;2.88;;;;;;;;;;5056304;28;20025;-84
2023/08/23 00:53:49;;;;;;;9.50;2.97;;;;;;;;;;5039457;28;20074;-81
2023/08/23 00:56:17;;;;;;;9.38;2.97;;;;;;;;;;5039991;28;20037;-82
2023/08/23 00:58:45;;;;;;;6.10;2.92;;;;;;;;;;5047579;28;20063;-80
2023/08/23 01:01:12;;;;;;;6.22;2.80;;;;;;;;;;5041263;28;20033;-82
2023/08/23 01:03:40;;;;;;;6.15;3.28;;;;;;;;;;5043243;28;20032;-78
2023/08/23 01:06:19;;;;;;;6.00;2.88;;;;;;;;;;5043645;28;20032;-82
2023/08/23 01:08:56;;;;;;;6.70;2.22;;;;;;;;;;5040493;28;20587;-82
2023/08/23 01:11:25;;;;;;;4.93;3.00;;;;;;;;;;5041747;28;20052;-81
2023/08/23 01:13:58;;;;;;;8.07;3.33;;;;;;;;;;5062382;28;20029;-82
2023/08/23 01:16:25;;;;;;;7.82;3.08;;;;;;;;;;5050926;28;20036;-82
2023/08/23 01:18:56;;;;;;;5.93;2.78;;;;;;;;;;5066164;28;20032;-80
2023/08/23 01:21:25;;;;;;;8.95;2.60;;;;;;;;;;5045658;28;20034;-79
2023/08/23 01:23:52;;;;;;;5.55;2.53;;;;;;;;;;5051355;28;20059;-79
2023/08/23 01:26:20;;;;;;;6.45;2.80;;;;;;;;;;5049009;28;20351;-80
2023/08/23 01:28:51;;;;;;;7.53;2.55;;;;;;;;;;5047269;28;20056;-82
2023/08/23 01:31:22;;;;;;;5.85;2.75;;;;;;;;;;5058058;28;20048;-78
2023/08/23 01:33:52;;;;;;;5.57;2.72;;;;;;;;;;5063504;28;20066;-79
2023/08/23 01:36:22;;;;;;;7.82;3.03;;;;;;;;;;5058419;28;20021;-75
2023/08/23 01:38:49;;;;;;;8.50;2.65;;;;;;;;;;5056146;28;20127;-80
2023/08/23 01:41:16;;;;;;;6.65;2.53;;;;;;;;;;5049430;28;20028;-76
2023/08/23 01:43:45;;;;;;;4.13;2.78;;;;;;;;;;5054652;28;20041;-77
2023/08/23 01:46:13;;;;;;;4.57;2.50;;;;;;;;;;5058383;28;20032;-81
2023/08/23 01:48:39;;;;;;;4.50;3.08;;;;;;;;;;5082591;28;20074;-74
2023/08/23 01:51:06;;;;;;;8.35;3.03;;;;;;;;;;5061160;28;20033;-78
2023/08/23 01:53:32;;;;;;;7.72;2.58;;;;;;;;;;5061607;28;20029;-79
2023/08/23 01:55:59;;;;;;;10.02;3.45;;;;;;;;;;5064449;28;20060;-76
2023/08/23 01:58:25;;;;;;;5.65;2.60;;;;;;;;;;5068933;28;20024;-74
2023/08/23 02:00:52;;;;;;;8.07;2.47;;;;;;;;;;5069002;28;20028;-74
2023/08/23 02:03:18;;;;;;;4.60;2.80;;;;;;;;;;5085296;28;20056;-75
2023/08/23 02:05:44;;;;;;;6.60;2.50;;;;;;;;;;5086725;28;20139;-74
2023/08/23 02:08:10;;;;;;;4.07;2.55;;;;;;;;;;5065729;28;20024;-74
2023/08/23 02:10:39;;;;;;;5.13;2.92;;;;;;;;;;5074622;28;20017;-74
2023/08/23 02:13:06;;;;;;;4.68;2.97;;;;;;;;;;5072930;28;20013;-74
2023/08/23 02:15:34;;;;;;;5.93;3.25;;;;;;;;;;5072403;28;20030;-75
2023/08/23 02:18:00;;;;;;;8.98;3.05;;;;;;;;;;5091878;28;20039;-74
2023/08/23 02:20:26;;;;;;;3.92;2.80;;;;;;;;;;5076910;28;20028;-74
2023/08/23 02:22:52;;;;;;;9.07;2.90;;;;;;;;;;5070175;28;20024;-74
2023/08/23 02:25:18;;;;;;;6.68;2.30;;;;;;;;;;5071220;28;20036;-74
2023/08/23 02:27:44;;;;;;;6.18;2.85;;;;;;;;;;5072685;28;20044;-74
2023/08/23 02:30:11;;;;;;;5.78;2.63;;;;;;;;;;5072640;28;20033;-74
2023/08/23 02:32:37;;;;;;;7.18;2.55;;;;;;;;;;5071615;28;20084;-74
2023/08/23 02:35:03;;;;;;;10.05;2.72;;;;;;;;;;5071295;28;20013;-74
2023/08/23 02:37:31;;;;;;;5.22;2.65;;;;;;;;;;5091031;28;20074;-74
2023/08/23 02:39:57;;;;;;;7.85;2.67;;;;;;;;;;5072046;28;20021;-74
2023/08/23 02:42:23;;;;;;;5.18;2.78;;;;;;;;;;5126401;22;20044;-74
2023/08/23 02:44:49;;;;;;;6.78;2.85;;;;;;;;;;5108001;28;20100;-74
2023/08/23 02:47:15;;;;;;;6.38;2.83;;;;;;;;;;5101156;28;20048;-74
2023/08/23 02:49:42;;;;;;;6.18;2.83;;;;;;;;;;5119079;28;20039;-74
2023/08/23 02:52:08;;;;;;;4.45;2.75;;;;;;;;;;5100409;28;20219;-74
2023/08/23 02:54:34;;;;;;;7.50;2.50;;;;;;;;;;5099737;28;20038;-73
2023/08/23 02:57:00;;;;;;;5.15;2.55;;;;;;;;;;5108645;27;20013;-74
2023/08/23 02:59:26;;;;;;;5.20;2.33;;;;;;;;;;5098529;28;20091;-74
2023/08/23 03:01:52;;;;;;;6.18;2.97;;;;;;;;;;5099995;28;20012;-74
2023/08/23 03:04:18;;;;;;;4.93;2.53;;;;;;;;;;5117132;28;20028;-74
2023/08/23 03:06:44;;;;;;;7.95;2.33;;;;;;;;;;5101081;28;20039;-74
2023/08/23 03:09:10;;;;;;;4.18;2.42;;;;;;;;;;5113136;28;20012;-74
2023/08/23 03:11:37;;;;;;;6.88;2.50;;;;;;;;;;5097508;28;20080;-74
2023/08/23 03:14:03;;;;;;;4.18;2.72;;;;;;;;;;5099790;28;20054;-74
2023/08/23 03:16:28;;;;;;;6.25;2.58;;;;;;;;;;5097417;27;20020;-74
2023/08/23 03:18:54;;;;;;;5.38;2.80;;;;;;;;;;5116051;27;20034;-74
2023/08/23 03:21:20;;;;;;;5.68;2.53;;;;;;;;;;5096779;28;20083;-74
2023/08/23 03:23:46;;;;;;;6.55;2.60;;;;;;;;;;5097711;28;20027;-74
2023/08/23 03:26:12;;;;;;;9.43;2.90;;;;;;;;;;5117107;28;20019;-74
2023/08/23 03:28:38;;;;;;;7.25;3.30;;;;;;;;;;5097097;28;20044;-74
2023/08/23 03:31:05;;;;;;;7.55;3.03;;;;;;;;;;5114805;27;20016;-74
2023/08/23 03:33:31;;;;;;;4.68;2.70;;;;;;;;;;5099299;28;20047;-74
2023/08/23 03:35:57;;;;;;;3.92;2.53;;;;;;;;;;5098961;28;20231;-74
2023/08/23 03:38:23;;;;;;;8.05;2.80;;;;;;;;;;5113408;28;20017;-74
2023/08/23 03:40:49;;;;;;;6.43;2.88;;;;;;;;;;5089722;28;20058;-74
2023/08/23 03:43:15;;;;;;;6.55;3.47;;;;;;;;;;5098908;28;20051;-74
2023/08/23 03:45:51;;;;;;;5.25;2.90;;;;;;;;;;5096870;28;20027;-74
2023/08/23 03:48:17;;;;;;;4.90;2.60;;;;;;;;;;5115299;28;20028;-74
2023/08/23 03:50:43;;;;;;;7.53;2.78;;;;;;;;;;5105494;28;20143;-74
2023/08/23 03:53:09;;;;;;;6.60;2.92;;;;;;;;;;5101110;28;20012;-74
2023/08/23 03:55:36;;;;;;;4.32;2.83;;;;;;;;;;5099159;28;20027;-73
2023/08/23 03:58:03;;;;;;;7.65;2.40;;;;;;;;;;5114405;28;20049;-73
2023/08/23 04:00:29;;;;;;;4.80;2.95;;;;;;;;;;5098854;28;20047;-74
2023/08/23 04:02:55;;;;;;;6.45;3.22;;;;;;;;;;5096925;28;20019;-74
2023/08/23 04:05:21;;;;;;;4.63;3.00;;;;;;;;;;5112927;28;20032;-74
2023/08/23 04:07:47;;;;;;;4.30;3.33;;;;;;;;;;5098054;28;20208;-74
2023/08/23 04:10:13;;;;;;;5.90;3.05;;;;;;;;;;5113964;27;20032;-74
2023/08/23 04:12:39;;;;;;;9.85;3.20;;;;;;;;;;5096617;28;20031;-74
2023/08/23 04:15:05;;;;;;;4.40;2.85;;;;;;;;;;5105097;28;20016;-74
2023/08/23 04:17:31;;;;;;;6.72;2.80;;;;;;;;;;5113295;28;20032;-74
2023/08/23 04:19:57;;;;;;;5.65;2.78;;;;;;;;;;5115586;28;20046;-74
2023/08/23 04:22:23;;;;;;;5.95;3.20;;;;;;;;;;5114106;27;20031;-74
2023/08/23 04:24:51;;;;;;;10.05;5.18;;;;;;;;;;5113510;27;20035;-74
2023/08/23 04:27:17;;;;;;;12.70;2.92;;;;;;;;;;5114404;27;20031;-74
2023/08/23 04:29:43;;;;;;;7.10;3.42;;;;;;;;;;5113228;27;20025;-74
2023/08/23 04:32:12;;;;;;;5.95;3.55;;;;;;;;;;5117335;27;20044;-74
2023/08/23 04:34:38;;;;;;;8.88;4.05;;;;;;;;;;5098701;28;20049;-74
2023/08/23 04:37:06;;;;;;;7.38;3.97;;;;;;;;;;5113781;27;20082;-74
2023/08/23 04:39:32;;;;;;;5.68;3.55;;;;;;;;;;5096060;28;20126;-74
2023/08/23 04:41:58;;;;;;;5.63;3.83;;;;;;;;;;5113262;28;20039;-75
2023/08/23 04:44:26;;;;;;;10.05;3.55;;;;;;;;;;5115015;27;20040;-74
2023/08/23 04:46:52;;;;;;;5.35;3.17;;;;;;;;;;5109477;28;20028;-74
2023/08/23 04:49:18;;;;;;;8.80;3.47;;;;;;;;;;5112311;27;20154;-74
2023/08/23 04:51:44;;;;;;;5.95;2.90;;;;;;;;;;5095250;28;20059;-74
2023/08/23 04:54:11;;;;;;;11.40;3.95;;;;;;;;;;5110902;28;20061;-74
2023/08/23 04:56:37;;;;;;;9.60;4.00;;;;;;;;;;5113267;27;20220;-74
2023/08/23 04:59:03;;;;;;;8.95;3.63;;;;;;;;;;5095560;28;20115;-73
2023/08/23 05:01:29;;;;;;;7.28;3.75;;;;;;;;;;5111105;28;20028;-74
2023/08/23 05:03:55;;;;;;;11.15;4.28;;;;;;;;;;5114097;27;20106;-73
2023/08/23 05:06:21;;;;;;;6.20;3.15;;;;;;;;;;5111534;28;20031;-73
2023/08/23 05:08:47;;;;;;;8.07;3.80;;;;;;;;;;5104542;28;20036;-73
2023/08/23 05:11:13;;;;;;;7.20;4.00;;;;;;;;;;5104948;27;20019;-74
2023/08/23 05:13:39;;;;;;;5.55;3.72;;;;;;;;;;5113554;27;20045;-74
2023/08/23 05:16:05;;;;;;;6.65;3.50;;;;;;;;;;5095482;28;20105;-74
2023/08/23 05:18:31;;;;;;;10.60;5.10;;;;;;;;;;5114477;28;20022;-74
2023/08/23 05:21:02;;;;;;;6.75;4.00;;;;;;;;;;5112330;27;20024;-74
2023/08/23 05:23:29;;;;;;;11.10;4.65;;;;;;;;;;5094567;28;20096;-74
2023/08/23 05:25:55;;;;;;;10.88;4.53;;;;;;;;;;5096472;28;20080;-74
2023/08/23 05:28:27;;;;;;;9.25;4.47;;;;;;;;;;5114915;27;20040;-74
2023/08/23 05:30:53;;;;;;;9.52;5.00;;;;;;;;;;5095649;28;20039;-74
2023/08/23 05:33:20;;;;;;;10.38;5.47;;;;;;;;;;5096721;28;20055;-74
2023/08/23 05:35:46;;;;;;;8.82;5.75;;;;;;;;;;5096239;28;20015;-74
2023/08/23 05:38:12;;;;;;;18.63;6.00;;;;;;;;;;5094940;28;20046;-74
2023/08/23 05:40:39;;;;;;;9.57;6.40;;;;;;;;;;5098245;28;20062;-74
2023/08/23 05:43:08;;;;;;;9.20;6.65;;;;;;;;;;5112936;28;20012;-74
2023/08/23 05:45:34;;;;;;;14.85;5.80;;;;;;;;;;5096111;28;20035;-74
2023/08/23 05:48:01;;;;;;;12.82;6.32;;;;;;;;;;5097455;27;20025;-73
2023/08/23 05:50:27;;;;;;;9.75;5.60;;;;;;;;;;5105693;28;20023;-74
2023/08/23 05:52:53;;;;;;;9.02;5.15;;;;;;;;;;5094754;28;20126;-74
2023/08/23 05:55:19;;;;;;;16.48;5.97;;;;;;;;;;5096183;28;20013;-74
2023/08/23 05:57:45;;;;;;;13.00;7.45;;;;;;;;;;5096623;28;20084;-74
2023/08/23 06:00:12;;;;;;;11.52;6.00;;;;;;;;;;5098113;27;20024;-74
2023/08/23 06:02:38;;;;;;;10.98;6.75;;;;;;;;;;5097593;28;20019;-73
2023/08/23 06:05:05;;;;;;;12.23;6.88;;;;;;;;;;5096700;28;20024;-73
2023/08/23 06:07:31;;;;;;;15.63;7.45;;;;;;;;;;5112772;28;20048;-75
2023/08/23 06:09:57;;;;;;;13.38;7.05;;;;;;;;;;5095908;28;20028;-74
2023/08/23 06:12:27;;;;;;;14.07;7.90;;;;;;;;;;5093027;28;20032;-75
2023/08/23 06:14:53;;;;;;;17.90;7.88;;;;;;;;;;5110351;28;20044;-76
2023/08/23 06:17:19;;;;;;;17.30;8.57;;;;;;;;;;5089003;28;20028;-79
2023/08/23 06:19:45;;;;;;;16.13;7.95;;;;;;;;;;5107474;28;20035;-75
2023/08/23 06:22:11;;;;;;;15.68;9.40;;;;;;;;;;5102187;28;20031;-79
2023/08/23 06:24:37;;;;;;;13.68;8.27;;;;;;;;;;5087835;28;20621;-80
2023/08/23 06:27:03;;;;;;;13.73;9.57;;;;;;;;;;5092466;28;20042;-82
2023/08/23 06:29:29;;;;;;;12.52;9.45;;;;;;;;;;5081724;28;20047;-79
2023/08/23 06:31:55;;;;;;;15.95;9.65;;;;;;;;;;5072230;28;20036;-84
2023/08/23 06:34:21;;;;;;;13.95;10.05;;;;;;;;;;5072312;28;20090;-82
2023/08/23 06:36:47;;;;;;;21.70;9.98;;;;;;;;;;5068382;28;20051;-86
2023/08/23 06:39:13;;;;;;;16.75;9.88;;;;;;;;;;5066237;28;20522;-84
2023/08/23 06:41:39;;;;;;;20.77;10.88;;;;;;;;;;5086006;28;20031;-82
2023/08/23 06:44:07;;;;;;;18.25;10.60;;;;;;;;;;5058267;28;20748;-85
2023/08/23 06:46:33;;;;;;;25.08;10.05;;;;;;;;;;5083708;28;20059;-81
2023/08/23 06:48:59;;;;;;;15.13;9.52;;;;;;;;;;5082961;28;20055;-85
2023/08/23 06:51:28;;;;;;;15.93;9.90;;;;;;;;;;5064237;28;20115;-80
2023/08/23 06:53:54;;;;;;;13.93;9.82;;;;;;;;;;5069052;28;20942;-86
2023/08/23 06:56:20;;;;;;;18.52;10.90;;;;;;;;;;5082206;28;20454;-86
2023/08/23 06:58:46;;;;;;;17.95;8.82;;;;;;;;;;5088514;28;20036;-83
2023/08/23 07:01:16;;;;;;;17.92;9.90;;;;;;;;;;5071154;28;20032;-82
2023/08/23 07:03:42;;;;;;;20.48;8.38;;;;;;;;;;5090342;28;20024;-86
2023/08/23 07:06:08;;;;;;;13.48;8.88;;;;;;;;;;5088753;28;20032;-83
2023/08/23 07:08:34;;;;;;;11.30;8.50;;;;;;;;;;5088833;28;20162;-85
2023/08/23 07:11:00;;;;;;;20.17;9.00;;;;;;;;;;5090821;28;20157;-88
2023/08/23 07:13:26;;;;;;;19.25;9.07;;;;;;;;;;5091572;28;20032;-84
2023/08/23 07:15:52;;;;;;;13.23;8.20;;;;;;;;;;5074465;28;20069;-82
2023/08/23 07:18:18;;;;;;;13.50;7.95;;;;;;;;;;5071345;28;20855;-85
2023/08/23 07:20:44;;;;;;;17.52;9.15;;;;;;;;;;5083833;28;20115;-83
2023/08/23 07:23:10;;;;;;;12.82;8.07;;;;;;;;;;5075751;28;20031;-89
2023/08/23 07:25:36;;;;;;;20.25;10.82;;;;;;;;;;5074406;28;20027;-83
2023/08/23 07:28:02;;;;;;;16.20;10.55;;;;;;;;;;5071453;28;20039;-86
2023/08/23 07:30:28;;;;;;;16.02;8.80;;;;;;;;;;5075527;28;21573;-89
2023/08/23 07:32:54;;;;;;;15.90;9.60;;;;;;;;;;5073685;28;20028;-86
2023/08/23 07:35:22;;;;;;;13.70;9.32;;;;;;;;;;5089907;28;20084;-88
2023/08/23 07:37:48;;;;;;;15.25;9.20;;;;;;;;;;5074133;28;20444;-87
2023/08/23 07:40:15;;;;;;;16.65;9.98;;;;;;;;;;5087638;28;20492;-84
2023/08/23 07:42:44;;;;;;;22.10;10.32;;;;;;;;;;5069508;28;20051;-90
2023/08/23 07:45:10;;;;;;;12.45;9.93;;;;;;;;;;5085932;28;20028;-86
2023/08/23 07:47:36;;;;;;;16.02;9.13;;;;;;;;;;5072041;28;20054;-85
2023/08/23 07:50:03;;;;;;;15.90;9.30;;;;;;;;;;5070658;28;20039;-86
2023/08/23 07:52:30;;;;;;;15.02;9.73;;;;;;;;;;5070837;28;21024;-85
2023/08/23 07:54:56;;;;;;;18.67;10.38;;;;;;;;;;5071348;28;20039;-86
2023/08/23 07:57:22;;;;;;;16.75;10.35;;;;;;;;;;5070026;28;20027;-87
2023/08/23 07:59:48;;;;;;;19.75;10.55;;;;;;;;;;5071741;28;20040;-88
2023/08/23 08:02:14;;;;;;;18.40;10.77;;;;;;;;;;5086889;28;20035;-89
2023/08/23 08:04:43;;;;;;;19.10;10.10;;;;;;;;;;5084296;28;20043;-87
2023/08/23 08:07:09;;;;;;;13.90;10.00;;;;;;;;;;5085810;28;20100;-89
2023/08/23 08:09:35;;;;;;;17.52;11.18;;;;;;;;;;5070756;28;20089;-86
2023/08/23 08:12:01;;;;;;;16.10;10.63;;;;;;;;;;5086158;28;20028;-89
2023/08/23 08:14:29;;;;;;;17.48;12.20;;;;;;;;;;5085722;28;20032;-88
2023/08/23 08:16:55;;;;;;;16.45;11.38;;;;;;;;;;5070645;28;20456;-85
2023/08/23 08:19:21;;;;;;;14.05;10.38;;;;;;;;;;5089976;28;20576;-88
2023/08/23 08:21:47;;;;;;;19.75;11.40;;;;;;;;;;5069009;28;20124;-86
2023/08/23 08:24:13;;;;;;;15.55;10.13;;;;;;;;;;5084555;28;20350;-88
2023/08/23 08:26:39;;;;;;;15.18;9.45;;;;;;;;;;5062475;28;20078;-86
2023/08/23 08:29:05;;;;;;;18.35;11.20;;;;;;;;;;5069939;28;20024;-86
2023/08/23 08:31:34;;;;;;;20.05;11.05;;;;;;;;;;5068755;28;20032;-87
2023/08/23 08:34:02;;;;;;;13.32;8.70;;;;;;;;;;5083190;28;20020;-88
2023/08/23 08:36:28;;;;;;;15.13;9.43;;;;;;;;;;5086754;28;20067;-87
2023/08/23 08:38:54;;;;;;;14.90;9.52;;;;;;;;;;5086674;28;20039;-90
2023/08/23 08:41:20;;;;;;;18.55;9.27;;;;;;;;;;5070731;28;20174;-85
2023/08/23 08:43:46;;;;;;;21.92;9.88;;;;;;;;;;5086271;28;20040;-90
2023/08/23 08:46:12;;;;;;;20.88;10.70;;;;;;;;;;5079046;28;20043;-82
2023/08/23 08:48:38;;;;;;;14.60;9.93;;;;;;;;;;5070864;28;20127;-87
2023/08/23 08:51:09;;;;;;;12.63;8.15;;;;;;;;;;5085222;28;20062;-90
2023/08/23 08:53:37;;;;;;;12.60;8.82;;;;;;;;;;5084301;28;20086;-91
2023/08/23 08:56:04;;;;;;;12.95;8.60;;;;;;;;;;5078159;28;20032;-85
2023/08/23 08:58:31;;;;;;;11.73;8.68;;;;;;;;;;5068257;28;20066;-85
2023/08/23 09:00:59;;;;;;;12.98;8.30;;;;;;;;;;5085063;28;20051;-85
2023/08/23 09:03:25;;;;;;;18.60;7.35;;;;;;;;;;5085018;28;20031;-83
2023/08/23 09:05:52;;;;;;;14.15;8.90;;;;;;;;;;5086085;28;20032;-87
2023/08/23 09:08:18;;;;;;;12.98;9.02;;;;;;;;;;5065466;28;20032;-87
2023/08/23 09:10:44;;;;;;;13.90;9.43;;;;;;;;;;5084172;28;20029;-90
2023/08/23 09:13:10;;;;;;;15.95;10.70;;;;;;;;;;5084354;28;20023;-82
2023/08/23 09:15:36;;;;;;;12.35;9.10;;;;;;;;;;5071603;28;20036;-89
2023/08/23 09:18:02;;;;;;;14.52;8.98;;;;;;;;;;5083377;28;20028;-85
2023/08/23 09:20:28;;;;;;;12.88;8.57;;;;;;;;;;5076621;28;20036;-88
2023/08/23 09:22:54;;;;;;;20.05;8.00;;;;;;;;;;5081289;28;20036;-86
2023/08/23 09:25:23;;;;;;;13.43;8.73;;;;;;;;;;5086056;28;20265;-85
2023/08/23 09:27:49;;;;;;;11.40;7.95;;;;;;;;;;5066453;28;20055;-85
2023/08/23 09:30:16;;;;;;;11.95;7.38;;;;;;;;;;5075828;28;20049;-88
2023/08/23 09:32:45;;;;;;;10.82;6.75;;;;;;;;;;5082328;28;20048;-87
2023/08/23 09:35:11;;;;;;;14.50;8.43;;;;;;;;;;5082830;28;20027;-84
2023/08/23 09:37:39;;;;;;;13.25;8.00;;;;;;;;;;5067604;28;20061;-88
2023/08/23 09:40:05;;;;;;;13.73;7.65;;;;;;;;;;5083739;28;20109;-85
2023/08/23 09:42:32;;;;;;;14.15;6.65;;;;;;;;;;5069711;28;20158;-86
2023/08/23 09:44:59;;;;;;;15.20;6.88;;;;;;;;;;5067658;28;20291;-89
2023/08/23 09:47:28;;;;;;;12.85;7.38;;;;;;;;;;5078203;28;20069;-84
2023/08/23 09:49:54;;;;;;;13.20;5.93;;;;;;;;;;5082970;28;20021;-85
2023/08/23 09:52:22;;;;;;;14.50;6.45;;;;;;;;;;5076350;28;20032;-81
2023/08/23 09:54:59;;;;;;;13.88;7.05;;;;;;;;;;5084243;28;20136;-84
2023/08/23 09:57:25;;;;;;;13.90;6.70;;;;;;;;;;5083885;28;20032;-88
2023/08/23 09:59:52;;;;;;;14.57;6.00;;;;;;;;;;5083723;28;20097;-81
2023/08/23 10:02:19;;;;;;;16.02;6.53;;;;;;;;;;5085113;28;20092;-84
2023/08/23 10:04:47;;;;;;;12.77;6.45;;;;;;;;;;5071473;28;20043;-85
2023/08/23 10:07:16;;;;;;;9.95;6.10;;;;;;;;;;5084099;28;20036;-89
2023/08/23 10:09:45;;;;;;;13.45;7.30;;;;;;;;;;5067748;28;20029;-86
2023/08/23 10:12:12;;;;;;;10.90;5.57;;;;;;;;;;5067506;28;20023;-89
2023/08/23 10:14:42;;;;;;;11.75;5.35;;;;;;;;;;5083166;28;20232;-86
2023/08/23 10:17:09;;;;;;;9.52;5.47;;;;;;;;;;5086089;28;20032;-88
2023/08/23 10:19:36;;;;;;;14.13;5.88;;;;;;;;;;5081045;28;20032;-87
2023/08/23 10:22:02;;;;;;;16.67;6.25;;;;;;;;;;5066392;28;20036;-84
2023/08/23 10:24:28;;;;;;;11.07;5.78;;;;;;;;;;5067254;28;20032;-85
2023/08/23 10:26:54;;;;;;;11.27;4.43;;;;;;;;;;5069934;28;20035;-87
2023/08/23 10:29:30;;;;;;;8.95;3.05;;;;;;;;;;5083529;28;20035;-89
2023/08/23 10:31:58;;;;;;;10.80;3.22;;;;;;;;;;5085229;28;20850;-85
2023/08/23 10:34:25;;;;;;;15.40;3.75;;;;;;;;;;5075119;28;20036;-86
2023/08/23 10:36:52;;;;;;;17.08;3.95;;;;;;;;;;5068911;28;20482;-88
2023/08/23 10:39:21;;;;;;;9.93;3.97;;;;;;;;;;5085237;28;20028;-85
2023/08/23 10:41:49;;;;;;;8.05;2.90;;;;;;;;;;5087460;28;20558;-84
2023/08/23 10:44:18;;;;;;;7.55;2.58;;;;;;;;;;5085562;28;20032;-85
2023/08/23 10:46:45;;;;;;;8.38;2.10;;;;;;;;;;5084470;28;20029;-84
2023/08/23 10:49:16;;;;;;;8.27;2.72;;;;;;;;;;5073001;28;20097;-86
2023/08/23 10:51:42;;;;;;;9.93;2.20;;;;;;;;;;5087201;28;20055;-86
2023/08/23 10:54:17;;;;;;;10.48;2.05;;;;;;;;;;5083323;28;20454;-84
2023/08/23 10:56:43;;;;;;;3.72;1.60;;;;;;;;;;5091153;28;20043;-89
2023/08/23 10:59:09;;;;;;;5.03;1.48;;;;;;;;;;5092442;28;20024;-88
2023/08/23 11:01:38;;;;;;;2.38;1.40;;;;;;;;;;5092276;28;20031;-86
2023/08/23 11:04:04;;;;;;;5.82;1.45;;;;;;;;;;5072882;28;20087;-89
2023/08/23 11:06:31;;;;;;;2.88;1.40;;;;;;;;;;5075185;28;20101;-82
2023/08/23 11:08:57;;;;;;;7.85;2.20;;;;;;;;;;5072695;28;20452;-82
2023/08/23 11:11:29;;;;;;;7.70;1.48;;;;;;;;;;5071217;28;20635;-82
2023/08/23 11:13:55;;;;;;;;;;;;;;;;;;5079679;28;20027;-81
2023/08/23 11:16:22;;;;;;;5.60;1.83;;;;;;;;;;5062134;28;19919;-84
2023/08/23 11:18:51;;;;;;;6.90;1.40;;;;;;;;;;5070197;28;20077;-81
2023/08/23 11:21:17;;;;;;;8.85;1.75;;;;;;;;;;5067574;28;20031;-84
2023/08/23 11:23:43;;;;;;;3.75;2.20;;;;;;;;;;5071435;28;20024;-83
2023/08/23 11:26:11;;;;;;;7.57;1.75;;;;;;;;;;5085840;28;20032;-83
2023/08/23 11:28:37;;;;;;;5.40;1.33;;;;;;;;;;5083927;28;20028;-82
2023/08/23 11:31:06;;;;;;;3.13;1.00;;;;;;;;;;5078868;28;20039;-80
2023/08/23 11:33:33;;;;;;;3.90;1.42;;;;;;;;;;5087116;28;20928;-85
2023/08/23 11:35:59;;;;;;;4.43;1.40;;;;;;;;;;5077048;28;20032;-82
2023/08/23 11:38:31;;;;;;;5.03;1.95;;;;;;;;;;5085022;28;20035;-82
2023/08/23 11:40:57;;;;;;;9.07;1.95;;;;;;;;;;5085899;28;20067;-83
2023/08/23 11:43:27;;;;;;;4.20;1.60;;;;;;;;;;5066295;28;20566;-82
2023/08/23 11:45:53;;;;;;;4.75;1.48;;;;;;;;;;5084086;28;20024;-82
2023/08/23 11:48:21;;;;;;;4.32;0.98;;;;;;;;;;5086169;28;20086;-84
2023/08/23 11:50:47;;;;;;;10.57;1.40;;;;;;;;;;5084023;28;20051;-83
2023/08/23 11:53:13;;;;;;;4.40;1.38;;;;;;;;;;5083663;28;20120;-83
2023/08/23 11:55:42;;;;;;;7.72;1.38;;;;;;;;;;5070907;28;20727;-83
2023/08/23 11:58:09;;;;;;;6.05;1.20;;;;;;;;;;5084982;28;20028;-79
2023/08/23 12:00:36;;;;;;;7.25;1.27;;;;;;;;;;5085909;28;20024;-80
2023/08/23 12:03:02;;;;;;;4.25;1.48;;;;;;;;;;5067757;28;20039;-83
2023/08/23 12:05:31;;;;;;;3.58;1.40;;;;;;;;;;5085840;28;20036;-83
2023/08/23 12:07:57;;;;;;;3.70;1.40;;;;;;;;;;5068737;28;20481;-82
2023/08/23 12:10:23;;;;;;;8.07;1.60;;;;;;;;;;5076817;28;20036;-82
2023/08/23 12:12:52;;;;;;;4.88;1.63;;;;;;;;;;5084741;28;20114;-87
2023/08/23 12:15:18;;;;;;;4.70;1.23;;;;;;;;;;5069435;28;20039;-82
2023/08/23 12:17:44;;;;;;;3.03;1.45;;;;;;;;;;5085246;28;20045;-82
2023/08/23 12:20:11;;;;;;;3.83;1.30;;;;;;;;;;5086826;28;20036;-83
2023/08/23 12:22:38;;;;;;;4.78;1.80;;;;;;;;;;5067440;28;20023;-84
2023/08/23 12:25:04;;;;;;;2.08;1.00;;;;;;;;;;5084251;28;20507;-82
2023/08/23 12:27:30;;;;;;;7.68;2.20;;;;;;;;;;5085734;28;20060;-80
2023/08/23 12:29:56;;;;;;;3.83;1.75;;;;;;;;;;5086059;28;20047;-81
2023/08/23 12:32:24;;;;;;;4.97;1.52;;;;;;;;;;5084690;28;20451;-81
2023/08/23 12:34:51;;;;;;;5.05;1.80;;;;;;;;;;5086057;28;20036;-84
2023/08/23 12:37:17;;;;;;;2.40;1.30;;;;;;;;;;5086017;28;20055;-82
2023/08/23 12:39:43;;;;;;;3.97;1.42;;;;;;;;;;5065827;28;20051;-79
2023/08/23 12:42:09;;;;;;;10.02;2.15;;;;;;;;;;5069389;28;20036;-85
2023/08/23 12:44:35;;;;;;;7.85;1.40;;;;;;;;;;5083743;28;20036;-84
2023/08/23 12:47:04;;;;;;;3.90;1.65;;;;;;;;;;5083324;28;20024;-81
2023/08/23 12:49:30;;;;;;;9.02;2.05;;;;;;;;;;5067918;28;20608;-83
2023/08/23 12:51:56;;;;;;;5.38;1.95;;;;;;;;;;5070261;28;20021;-82
2023/08/23 12:54:22;;;;;;;11.15;1.38;;;;;;;;;;5065621;28;20028;-81
2023/08/23 12:56:48;;;;;;;3.03;1.45;;;;;;;;;;5084411;28;20024;-80
2023/08/23 12:59:17;;;;;;;2.88;1.63;;;;;;;;;;5064938;28;20032;-84
2023/08/23 13:01:45;;;;;;;7.32;1.88;;;;;;;;;;5084716;28;20032;-79
2023/08/23 13:04:11;;;;;;;3.53;1.70;;;;;;;;;;5084558;28;20024;-82
2023/08/23 13:06:40;;;;;;;3.53;1.40;;;;;;;;;;5069797;28;20364;-84
2023/08/23 13:09:06;;;;;;;7.75;2.08;;;;;;;;;;5069442;28;20035;-82
2023/08/23 13:11:32;;;;;;;5.32;1.45;;;;;;;;;;5084585;28;20039;-82
2023/08/23 13:13:58;;;;;;;3.95;1.85;;;;;;;;;;5080821;28;20032;-82
2023/08/23 13:16:24;;;;;;;6.50;1.73;;;;;;;;;;5083271;28;20213;-83
2023/08/23 13:18:50;;;;;;;8.02;1.60;;;;;;;;;;5080859;28;20638;-81
2023/08/23 13:21:16;;;;;;;9.63;2.08;;;;;;;;;;5072888;28;20031;-83
2023/08/23 13:23:42;;;;;;;4.97;1.30;;;;;;;;;;5064834;28;20034;-79
2023/08/23 13:26:08;;;;;;;4.15;1.52;;;;;;;;;;5067289;28;20052;-83
2023/08/23 13:28:36;;;;;;;3.75;1.38;;;;;;;;;;5068536;28;20049;-82
2023/08/23 13:31:04;;;;;;;5.55;1.85;;;;;;;;;;5081831;28;20032;-80
2023/08/23 13:33:30;;;;;;;5.45;1.95;;;;;;;;;;5067729;28;20489;-81
2023/08/23 13:35:56;;;;;;;5.97;1.95;;;;;;;;;;5065337;28;20034;-80
2023/08/23 13:38:22;;;;;;;5.20;1.70;;;;;;;;;;5082175;28;20028;-83
2023/08/23 13:40:48;;;;;;;5.80;1.77;;;;;;;;;;5083632;28;20028;-82
2023/08/23 13:43:14;;;;;;;5.82;2.55;;;;;;;;;;5068257;28;20044;-84
2023/08/23 13:45:43;;;;;;;3.97;2.15;;;;;;;;;;5066184;28;20036;-83
2023/08/23 13:48:09;;;;;;;5.75;2.83;;;;;;;;;;5081736;28;20024;-79
2023/08/23 13:50:35;;;;;;;3.80;2.03;;;;;;;;;;5065729;28;20025;-83
2023/08/23 13:53:00;;;;;;;9.23;2.80;;;;;;;;;;5067849;28;20042;-83
2023/08/23 13:55:26;;;;;;;4.65;2.00;;;;;;;;;;5081317;28;20032;-84
2023/08/23 13:57:53;;;;;;;4.50;2.25;;;;;;;;;;5079920;28;20036;-83
2023/08/23 14:00:21;;;;;;;11.98;2.10;;;;;;;;;;5065516;28;20043;-82
2023/08/23 14:02:47;;;;;;;3.88;2.22;;;;;;;;;;5083172;28;20050;-83
2023/08/23 14:05:13;;;;;;;6.68;2.05;;;;;;;;;;5081277;28;20024;-81
2023/08/23 14:07:39;;;;;;;8.52;2.22;;;;;;;;;;5070569;28;20028;-83
2023/08/23 14:10:05;;;;;;;5.78;1.83;;;;;;;;;;5070609;28;20028;-83
2023/08/23 14:12:31;;;;;;;3.88;1.70;;;;;;;;;;5077136;28;20020;-80
2023/08/23 14:14:57;;;;;;;6.47;1.70;;;;;;;;;;5072255;28;20166;-84
2023/08/23 14:17:23;;;;;;;2.55;1.60;;;;;;;;;;5087427;28;20072;-81
2023/08/23 14:19:52;;;;;;;5.72;1.58;;;;;;;;;;5085582;28;20100;-80
2023/08/23 14:22:18;;;;;;;4.43;1.58;;;;;;;;;;5070731;28;20035;-83
2023/08/23 14:24:44;;;;;;;3.88;1.50;;;;;;;;;;5067719;28;20039;-85
2023/08/23 14:27:10;;;;;;;9.00;1.73;;;;;;;;;;5070748;28;20040;-85
2023/08/23 14:29:39;;;;;;;4.90;1.50;;;;;;;;;;5066257;28;20020;-82
2023/08/23 14:32:04;;;;;;;5.82;2.08;;;;;;;;;;5083380;28;20066;-84
2023/08/23 14:34:30;;;;;;;9.23;1.63;;;;;;;;;;5086949;28;20056;-80